Pagrindinis puslapis
METAR-TAF:

METAR-TAF

Oro uostai :

Maljorkos Palma, Ispanija

platuma: 39-33N, ilguma: 002-44E, Aukštis: 4 m

Dabartinis oras

Ataskaita buvo paskelbta 31 minutes, ne 19:00 UTC
Vėjas 1 kt nuo kintamojo kryptimis
Temperatūra 12°C
Drėgmė 94%
Slėgis 1020 hPa
Matomumas 10 km arba daugiau
Mažai debesys ne aukštis 2000 ft

METAR: LEPA 051900Z VRB01KT 9999 FEW020 12/11 Q1020 NOSIG

Laikas: 20:31 (19:31 UTC)

Prognozė

Ataskaita buvo paskelbta 2 valandos ir 31 minutes, ne 17:00 UTC
Prognozė galioja nuo 05 metu 18 UTC su 06 metu 18 UTC
Vėjas 3 kt nuo kintamojo kryptimis
Matomumas 10 km arba daugiau
Mažai debesys ne aukštis 1500 ft
Išsisklaidę debesys ne aukštis 3000 ft
Tikimybė 30% :
Laikinai
nuo 05 metu 23 UTC su 06 metu 06 UTC
Matomumas: 3000 m
Rūkas lopais

TAF: LEPA 051700Z 0518/0618 VRB03KT 9999 FEW015 SCT030 TX18/0613Z TN07/0607Z PROB30 TEMPO 0523/0606 3000 BCFG

Orai ataskaitas ir orų prognozės (METAR, TAF).

turimą stotys yra geltonos ir raudonos taškus žemėlapyje.

Perkelti pele per norėdami pamatyti stoties vardą.

Tada spustelėkite, norėdami matyti oro stebėjimo ir prognozės.

Norėdami pakeisti žemėlapį: spustelėkite ant žalios mygtukų su juodo kryžiaus žemyn,; žalią mygtuką su brūkšneliu, jei norite nutolinti; arba žalių rodyklių gretimoms žemėlapius.


METAR-TAF: